Time;durP1;ratioP1;P1;durP2;ratioP2;P2;SDS_P1;SDS_P2;PMS_P1;PMS_P2;Temp;Humidity;BMP_temperature;BMP_pressure;BME280_temperature;BME280_humidity;BME280_pressure;Samples;Min_cycle;Max_cycle;Signal;HPM_P1;HPM_P2
2022/05/18 00:00:29;;;;;;;12.38;7.13;;;;;;;17.20;82.08;101795.41;4996430;28;20101;-74
2022/05/18 00:03:04;;;;;;;15.52;7.22;;;;;;;17.25;82.27;101790.38;4995681;28;20024;-74
2022/05/18 00:05:31;;;;;;;11.20;6.63;;;;;;;17.34;81.15;101798.78;5013806;28;20496;-73
2022/05/18 00:07:57;;;;;;;17.70;6.93;;;;;;;17.36;81.69;101794.94;5013864;28;20053;-73
2022/05/18 00:10:22;;;;;;;15.63;6.10;;;;;;;17.40;81.71;101795.34;5013770;28;20500;-74
2022/05/18 00:12:49;;;;;;;14.35;6.30;;;;;;;17.43;81.23;101794.91;5013886;28;20080;-74
2022/05/18 00:15:17;;;;;;;14.35;6.68;;;;;;;17.44;81.43;101795.75;5014062;28;20029;-74
2022/05/18 00:17:43;;;;;;;12.85;6.75;;;;;;;17.46;81.43;101798.94;5013569;28;20239;-74
2022/05/18 00:20:10;;;;;;;13.98;6.80;;;;;;;17.43;82.09;101797.53;5013815;28;20426;-75
2022/05/18 00:22:55;;;;;;;21.40;7.13;;;;;;;17.45;81.88;101799.94;5013523;28;20401;-74
2022/05/18 00:25:24;;;;;;;13.48;7.47;;;;;;;17.48;81.66;101800.31;4995958;28;20029;-72
2022/05/18 00:27:49;;;;;;;12.15;6.65;;;;;;;17.38;82.50;101810.44;5013711;28;20048;-73
2022/05/18 00:30:16;;;;;;;14.85;7.40;;;;;;;17.33;82.36;101811.03;5013589;28;20109;-73
2022/05/18 00:32:42;;;;;;;11.95;6.82;;;;;;;17.28;83.00;101808.25;4996003;28;20030;-73
2022/05/18 00:35:09;;;;;;;17.10;7.40;;;;;;;17.22;83.10;101810.88;5013430;28;20026;-73
2022/05/18 00:37:34;;;;;;;15.30;7.05;;;;;;;17.21;83.07;101809.28;4995977;28;20041;-73
2022/05/18 00:39:59;;;;;;;16.38;7.45;;;;;;;17.20;83.04;101818.13;4995757;28;20112;-74
2022/05/18 00:42:26;;;;;;;14.98;7.22;;;;;;;17.08;83.71;101816.13;5013432;28;20021;-73
2022/05/18 00:44:52;;;;;;;14.38;7.70;;;;;;;17.03;83.81;101815.97;4995749;28;20022;-75
2022/05/18 00:47:17;;;;;;;14.55;7.32;;;;;;;17.06;84.18;101820.78;4995804;28;20366;-74
2022/05/18 00:49:46;;;;;;;16.48;7.68;;;;;;;17.06;84.20;101826.00;5013363;28;20037;-73
2022/05/18 00:52:14;;;;;;;14.77;7.57;;;;;;;17.01;84.27;101817.97;5013255;28;20029;-73
2022/05/18 00:54:40;;;;;;;16.40;7.30;;;;;;;17.02;84.29;101830.00;5013227;28;20151;-74
2022/05/18 00:57:19;;;;;;;16.42;7.57;;;;;;;16.96;84.83;101828.22;4995806;28;20033;-73
2022/05/18 00:59:53;;;;;;;15.77;7.70;;;;;;;16.89;84.47;101817.78;4995758;28;20485;-73
2022/05/18 01:02:19;;;;;;;14.40;7.50;;;;;;;16.92;84.80;101825.22;5013328;28;20030;-74
2022/05/18 01:04:47;;;;;;;15.20;7.90;;;;;;;16.92;84.95;101827.03;5013197;28;20034;-74
2022/05/18 01:07:20;;;;;;;14.20;8.05;;;;;;;16.82;85.08;101824.81;5011936;28;20026;-74
2022/05/18 01:09:47;;;;;;;20.42;7.57;;;;;;;16.83;85.54;101829.06;4995457;28;20160;-74
2022/05/18 01:12:16;;;;;;;13.40;7.68;;;;;;;16.75;85.78;101823.22;5011965;28;20065;-73
2022/05/18 01:14:52;;;;;;;15.57;8.38;;;;;;;16.79;85.80;101827.03;5013841;28;20037;-74
2022/05/18 01:17:27;;;;;;;16.05;8.02;;;;;;;16.75;85.69;101825.81;5016954;28;20615;-72
2022/05/18 01:19:55;;;;;;;18.92;8.95;;;;;;;16.75;85.70;101833.66;4999329;28;20061;-72
2022/05/18 01:22:56;;;;;;;15.23;8.32;;;;;;;16.73;85.92;101820.78;4999407;28;20025;-74
2022/05/18 01:25:46;;;;;;;16.27;8.38;;;;;;;16.73;86.32;101826.00;5016901;28;20030;-74
2022/05/18 01:28:12;;;;;;;15.32;8.48;;;;;;;16.67;86.42;101826.81;5017045;28;20022;-73
2022/05/18 01:30:46;;;;;;;16.38;8.55;;;;;;;16.67;86.35;101819.78;5016707;28;20030;-72
2022/05/18 01:33:12;;;;;;;17.13;8.85;;;;;;;16.74;86.10;101827.59;4999140;28;20048;-72
2022/05/18 01:35:41;;;;;;;25.42;9.40;;;;;;;16.73;86.04;101825.22;5016779;28;20030;-73
2022/05/18 01:38:07;;;;;;;19.45;8.93;;;;;;;16.68;86.01;101824.00;5016678;28;20022;-72
2022/05/18 01:40:38;;;;;;;21.42;9.48;;;;;;;16.63;86.27;101828.22;5016587;28;20084;-72
2022/05/18 01:43:08;;;;;;;18.08;9.02;;;;;;;16.49;87.05;101814.38;4998908;28;20030;-73
2022/05/18 01:45:33;;;;;;;17.02;9.68;;;;;;;16.55;87.22;101820.59;5016509;28;20046;-73
2022/05/18 01:48:15;;;;;;;20.83;9.45;;;;;;;16.52;87.02;101810.56;5016452;28;20033;-72
2022/05/18 01:50:41;;;;;;;15.73;9.27;;;;;;;16.49;87.51;101816.19;5016761;28;20061;-73
2022/05/18 01:53:07;;;;;;;15.13;9.13;;;;;;;16.48;87.47;101817.97;5016430;28;20046;-74
2022/05/18 01:55:32;;;;;;;17.02;9.27;;;;;;;16.38;87.83;101810.56;4998660;28;20122;-73
2022/05/18 01:57:58;;;;;;;21.50;9.55;;;;;;;16.26;88.14;101798.31;5016199;28;20029;-73
2022/05/18 02:00:24;;;;;;;17.17;10.02;;;;;;;16.27;88.60;101815.56;5016193;28;20037;-74
2022/05/18 02:02:50;;;;;;;16.02;9.45;;;;;;;16.39;88.65;101819.97;4998660;28;20025;-74
2022/05/18 02:05:15;;;;;;;22.65;10.10;;;;;;;16.15;88.13;101802.31;4998399;28;20030;-73
2022/05/18 02:07:40;;;;;;;18.52;10.18;;;;;;;16.22;89.87;101803.13;5016047;28;20363;-74
2022/05/18 02:10:06;;;;;;;21.33;10.07;;;;;;;16.32;88.97;101810.56;4998316;28;20037;-74
2022/05/18 02:12:32;;;;;;;19.40;9.68;;;;;;;16.33;88.27;101804.34;5016090;28;20105;-74
2022/05/18 02:14:58;;;;;;;19.80;9.88;;;;;;;16.27;89.01;101803.31;5016074;28;20071;-72
2022/05/18 02:17:24;;;;;;;17.88;9.98;;;;;;;16.20;88.96;101800.72;5015772;28;20037;-72
2022/05/18 02:19:50;;;;;;;21.35;10.18;;;;;;;16.23;89.14;101802.94;5016028;28;20141;-72
2022/05/18 02:22:15;;;;;;;19.20;9.95;;;;;;;16.13;88.57;101799.91;5015796;28;20040;-72
2022/05/18 02:24:41;;;;;;;20.40;10.27;;;;;;;16.02;88.85;101795.25;4998137;28;20033;-72
2022/05/18 02:27:06;;;;;;;20.73;10.02;;;;;;;15.99;89.69;101793.06;4997125;28;20469;-72
2022/05/18 02:29:31;;;;;;;23.35;10.48;;;;;;;16.09;88.99;101803.13;4998077;28;20030;-72
2022/05/18 02:31:56;;;;;;;16.27;9.50;;;;;;;15.97;88.91;101785.44;5015639;28;20033;-73
2022/05/18 02:34:22;;;;;;;15.07;9.45;;;;;;;15.97;88.91;101795.06;5015575;28;20048;-73
2022/05/18 02:36:48;;;;;;;25.55;10.23;;;;;;;15.92;89.40;101790.44;5015530;28;20053;-73
2022/05/18 02:39:14;;;;;;;22.23;10.90;;;;;;;15.96;89.74;101799.47;5015445;28;20072;-73
2022/05/18 02:41:39;;;;;;;24.98;11.05;;;;;;;15.89;89.64;101797.88;5015304;28;20026;-73
2022/05/18 02:44:05;;;;;;;16.08;10.68;;;;;;;15.86;89.41;101793.84;5015433;28;20116;-74
2022/05/18 02:46:30;;;;;;;17.60;10.88;;;;;;;15.90;89.57;101796.84;5015400;28;20018;-73
2022/05/18 02:48:55;;;;;;;18.95;10.82;;;;;;;15.73;89.79;101793.78;5015293;28;20113;-73
2022/05/18 02:51:24;;;;;;;18.33;10.57;;;;;;;15.81;89.79;101795.44;4997635;28;20025;-73
2022/05/18 02:53:49;;;;;;;21.63;11.68;;;;;;;15.72;90.39;101798.22;5015152;28;20026;-73
2022/05/18 02:56:23;;;;;;;24.73;11.40;;;;;;;15.70;89.55;101784.56;5015103;28;20033;-73
2022/05/18 02:58:49;;;;;;;20.50;10.57;;;;;;;15.81;89.95;101795.44;4997522;28;20385;-73
2022/05/18 03:01:23;;;;;;;19.58;10.90;;;;;;;15.77;89.46;101792.41;4997567;28;20385;-73
2022/05/18 03:03:49;;;;;;;26.80;11.40;;;;;;;15.74;89.53;101793.63;5014918;28;20469;-73
2022/05/18 03:06:17;;;;;;;21.02;11.80;;;;;;;15.90;89.64;101796.84;5014999;28;20088;-73
2022/05/18 03:08:43;;;;;;;19.65;11.07;;;;;;;15.91;88.43;101798.44;4997235;28;20033;-73
2022/05/18 03:11:09;;;;;;;20.45;11.18;;;;;;;15.92;88.51;101797.47;5014725;28;20108;-73
2022/05/18 03:13:35;;;;;;;21.65;11.80;;;;;;;15.93;88.46;101799.88;4997128;28;20076;-73
2022/05/18 03:16:02;;;;;;;20.60;11.35;;;;;;;15.95;88.45;101802.28;4997182;28;20026;-73
2022/05/18 03:18:28;;;;;;;23.52;11.57;;;;;;;15.90;88.25;101802.06;5014745;28;20049;-73
2022/05/18 03:23:38;;;;;;;18.35;11.52;;;;;;;15.85;88.67;101815.69;5015025;28;20044;-73
2022/05/18 03:26:11;;;;;;;23.17;11.40;;;;;;;15.78;88.98;101807.06;5014629;28;20061;-73
2022/05/18 03:28:39;;;;;;;20.98;11.43;;;;;;;15.84;88.99;101816.69;5014570;28;20026;-73
2022/05/18 03:31:06;;;;;;;18.50;11.07;;;;;;;15.84;89.18;101818.50;5014556;28;20025;-73
2022/05/18 03:33:32;;;;;;;18.30;10.50;;;;;;;15.82;88.57;101823.09;4996778;28;20485;-73
2022/05/18 03:35:58;;;;;;;23.08;10.80;;;;;;;15.78;88.87;101825.28;5014584;28;20469;-74
2022/05/18 03:38:24;;;;;;;18.55;11.25;;;;;;;15.90;88.42;101825.53;4996636;28;20033;-73
2022/05/18 03:40:50;;;;;;;16.63;10.73;;;;;;;15.89;88.40;101821.31;5014346;28;20458;-74
2022/05/18 03:43:16;;;;;;;20.13;11.40;;;;;;;15.88;88.21;101817.91;4996772;28;20072;-73
2022/05/18 03:45:41;;;;;;;22.45;11.60;;;;;;;15.83;88.79;101819.50;5014225;28;20461;-74
2022/05/18 03:48:08;;;;;;;19.48;10.70;;;;;;;15.91;88.67;101822.72;5014245;28;20105;-73
2022/05/18 03:50:36;;;;;;;18.98;11.23;;;;;;;15.94;88.48;101824.94;5014313;28;20046;-73
2022/05/18 03:53:03;;;;;;;17.77;11.27;;;;;;;15.98;87.86;101831.38;5014201;28;20532;-73
2022/05/18 03:55:28;;;;;;;21.42;11.13;;;;;;;15.98;87.74;101823.53;5014301;28;20393;-73
2022/05/18 03:57:53;;;;;;;19.50;11.95;;;;;;;15.83;88.41;101819.50;4996462;28;20037;-73
2022/05/18 04:00:19;;;;;;;19.63;12.25;;;;;;;15.94;87.69;101831.94;4996429;28;20160;-73
2022/05/18 04:02:47;;;;;;;17.95;10.80;;;;;;;15.89;88.24;101835.16;5014001;28;20034;-73
2022/05/18 04:05:14;;;;;;;23.65;12.90;;;;;;;15.88;87.94;101830.94;4996252;28;20037;-73
2022/05/18 04:07:39;;;;;;;18.15;11.80;;;;;;;15.90;87.71;101828.13;5014057;28;20026;-73
2022/05/18 04:10:06;;;;;;;18.17;11.30;;;;;;;15.83;88.24;101843.75;5013732;28;20025;-74
2022/05/18 04:12:31;;;;;;;21.75;11.63;;;;;;;15.83;88.34;101838.53;4979895;28;20036;-73
2022/05/18 04:14:57;;;;;;;23.63;11.75;;;;;;;15.92;88.29;101833.97;5013799;28;20097;-73
2022/05/18 04:17:25;;;;;;;22.35;11.85;;;;;;;16.01;88.18;101846.59;4996130;28;20136;-73
2022/05/18 04:19:51;;;;;;;17.38;11.38;;;;;;;15.94;87.11;101837.97;5014107;28;20034;-74
2022/05/18 04:22:16;;;;;;;20.15;11.90;;;;;;;15.95;87.95;101851.81;4995975;28;20092;-73
2022/05/18 04:24:42;;;;;;;18.42;12.10;;;;;;;15.96;88.05;101845.59;5013539;28;20030;-73
2022/05/18 04:27:07;;;;;;;20.05;11.98;;;;;;;16.09;87.30;101850.06;4995962;28;20022;-73
2022/05/18 04:29:33;;;;;;;21.02;11.60;;;;;;;16.22;87.26;101861.28;4996204;28;20026;-73
2022/05/18 04:31:59;;;;;;;20.45;11.80;;;;;;;16.18;87.01;101859.28;4995838;28;20022;-73
2022/05/18 04:34:25;;;;;;;19.33;11.50;;;;;;;16.27;87.38;101863.31;5013529;28;20049;-74
2022/05/18 04:36:51;;;;;;;21.83;11.93;;;;;;;16.36;87.10;101867.34;5013528;28;20033;-74
2022/05/18 04:39:16;;;;;;;23.15;12.40;;;;;;;16.48;86.86;101864.94;5013603;28;20079;-74
2022/05/18 04:41:42;;;;;;;21.50;12.35;;;;;;;16.46;85.77;101849.50;5013532;28;20057;-73
2022/05/18 04:44:07;;;;;;;20.45;11.90;;;;;;;16.58;85.65;101875.78;5013413;28;20386;-73
2022/05/18 04:46:32;;;;;;;20.00;12.88;;;;;;;16.73;85.13;101877.41;5013405;28;20072;-73
2022/05/18 04:48:57;;;;;;;25.08;13.57;;;;;;;16.85;84.55;101879.22;5013019;28;20099;-73
2022/05/18 04:51:23;;;;;;;21.60;13.13;;;;;;;16.93;84.16;101880.84;5013310;28;20026;-73
2022/05/18 04:53:48;;;;;;;23.55;13.10;;;;;;;17.06;83.47;101888.69;5013507;28;20021;-75
2022/05/18 04:56:13;;;;;;;24.05;13.60;;;;;;;17.23;83.07;101893.44;5013388;28;20053;-74
2022/05/18 04:58:39;;;;;;;23.67;13.32;;;;;;;17.33;82.71;101897.25;5001437;28;20041;-73
2022/05/18 05:01:07;;;;;;;24.88;13.88;;;;;;;17.57;81.44;101895.78;5023538;28;20030;-73
2022/05/18 05:03:33;;;;;;;26.83;14.38;;;;;;;17.84;80.41;101903.56;5015391;28;20034;-74
2022/05/18 05:05:58;;;;;;;23.17;14.45;;;;;;;17.95;80.29;101905.53;5013365;28;20026;-72
2022/05/18 05:08:24;;;;;;;26.55;14.43;;;;;;;17.98;79.56;101894.66;5011977;28;20068;-75
2022/05/18 05:10:49;;;;;;;23.58;14.23;;;;;;;18.09;79.43;101908.88;5014225;28;20470;-73
2022/05/18 05:13:15;;;;;;;21.85;14.30;;;;;;;18.19;78.59;101909.22;5012095;28;20025;-73
2022/05/18 05:15:40;;;;;;;21.00;14.32;;;;;;;18.37;79.57;101915.56;5013088;28;20021;-73
2022/05/18 05:18:06;;;;;;;23.60;14.30;;;;;;;18.53;77.89;101909.00;5012842;28;20041;-73
2022/05/18 05:20:31;;;;;;;22.77;14.30;;;;;;;18.57;78.24;101910.19;5013049;28;20025;-73
2022/05/18 05:22:56;;;;;;;22.75;15.00;;;;;;;18.79;76.97;101910.66;5013121;28;20033;-73
2022/05/18 05:25:22;;;;;;;28.80;15.23;;;;;;;18.87;76.11;101910.38;5012941;28;20064;-73
2022/05/18 05:27:47;;;;;;;26.60;15.85;;;;;;;18.85;76.19;101910.59;4995747;28;20045;-73
2022/05/18 05:30:14;;;;;;;24.83;15.20;;;;;;;19.08;76.38;101912.63;5013460;28;20546;-74
2022/05/18 05:32:40;;;;;;;26.80;15.85;;;;;;;19.24;74.84;101913.88;4995501;28;20374;-73
2022/05/18 05:35:08;;;;;;;24.95;15.75;;;;;;;19.29;74.59;101914.03;4995351;28;20441;-73
2022/05/18 05:37:33;;;;;;;25.38;16.48;;;;;;;19.49;73.44;101908.56;4995865;28;20374;-73
2022/05/18 05:39:59;;;;;;;27.48;16.42;;;;;;;19.54;72.72;101902.69;5012906;28;20025;-72
2022/05/18 05:42:24;;;;;;;28.40;16.27;;;;;;;19.88;71.89;101895.22;5012800;28;20474;-73
2022/05/18 05:44:50;;;;;;;28.77;16.55;;;;;;;20.02;71.18;101897.47;4995127;28;20030;-73
2022/05/18 05:47:16;;;;;;;32.33;16.98;;;;;;;20.11;70.99;101905.00;5012781;28;20085;-73
2022/05/18 05:49:42;;;;;;;30.80;16.25;;;;;;;20.85;68.84;101897.66;5013011;28;20105;-73
2022/05/18 05:52:09;;;;;;;26.33;16.42;;;;;;;20.80;68.10;101903.59;4995312;28;20026;-73
2022/05/18 05:54:35;;;;;;;25.90;15.57;;;;;;;27.48;48.82;101897.84;5012712;28;20025;-73
2022/05/18 05:57:04;;;;;;;23.13;14.40;;;;;;;28.72;43.72;101900.13;5013105;28;20362;-73
2022/05/18 05:59:31;;;;;;;21.85;13.10;;;;;;;31.15;38.52;101896.94;5012713;28;20022;-73
2022/05/18 06:02:01;;;;;;;24.27;13.20;;;;;;;32.03;36.09;101905.38;5013855;28;20056;-74
2022/05/18 06:04:31;;;;;;;19.65;12.75;;;;;;;30.09;39.79;101902.03;5016140;28;20030;-74
2022/05/18 06:06:56;;;;;;;23.63;12.95;;;;;;;24.69;52.05;101907.66;4982429;28;20029;-74
2022/05/18 06:09:22;;;;;;;20.75;13.48;;;;;;;25.75;50.83;101904.94;4998593;28;20025;-74
2022/05/18 06:11:48;;;;;;;25.27;12.37;;;;;;;25.93;48.57;101904.50;5015817;28;20022;-74
2022/05/18 06:14:13;;;;;;;21.40;12.70;;;;;;;23.50;56.08;101905.94;5016021;28;20737;-74
2022/05/18 06:16:39;;;;;;;23.42;12.90;;;;;;;22.72;59.19;101914.66;5015608;28;20128;-74
2022/05/18 06:19:04;;;;;;;24.20;13.15;;;;;;;22.39;59.84;101917.28;5014796;28;20066;-73
2022/05/18 06:21:29;;;;;;;30.77;14.52;;;;;;;22.46;59.93;101915.28;5015624;28;20489;-73
2022/05/18 06:23:55;;;;;;;23.10;14.18;;;;;;;22.36;59.90;101917.78;5015724;28;20033;-73
2022/05/18 06:26:20;;;;;;;25.15;13.95;;;;;;;22.03;61.47;101935.06;5015896;28;20022;-73
2022/05/18 06:28:45;;;;;;;24.08;14.88;;;;;;;21.73;62.43;101938.72;5015705;28;20030;-73
2022/05/18 06:31:10;;;;;;;25.55;15.18;;;;;;;21.65;62.31;101933.03;5015508;28;20092;-73
2022/05/18 06:33:36;;;;;;;26.48;15.18;;;;;;;21.52;63.46;101937.53;4997951;28;20116;-73
2022/05/18 06:36:02;;;;;;;26.30;15.10;;;;;;;22.12;61.96;101938.91;5015753;28;20033;-73
2022/05/18 06:38:28;;;;;;;28.67;15.77;;;;;;;22.55;60.25;101934.94;5015471;28;20035;-73
2022/05/18 06:43:38;;;;;;;31.02;15.48;;;;;;;27.71;48.90;101952.16;5015296;28;20029;-74
2022/05/18 06:46:03;;;;;;;26.88;15.23;;;;;;;28.70;45.44;101955.47;4997731;28;20420;-73
2022/05/18 06:48:29;;;;;;;29.50;15.32;;;;;;;30.33;40.62;101949.16;5014055;28;20121;-73
2022/05/18 06:50:54;;;;;;;30.42;15.43;;;;;;;31.70;38.32;101950.22;5014133;28;20033;-73
2022/05/18 06:53:20;;;;;;;24.73;14.23;;;;;;;30.92;39.41;101968.13;5015393;28;20049;-73
2022/05/18 06:55:46;;;;;;;21.38;13.65;;;;;;;28.73;43.58;101968.19;5014908;28;20273;-74
2022/05/18 06:58:11;;;;;;;22.27;12.75;;;;;;;26.15;49.84;101961.72;4981420;28;20032;-73
2022/05/18 07:00:36;;;;;;;33.70;13.83;;;;;;;24.95;53.29;101960.69;5014897;28;20077;-74
2022/05/18 07:03:02;;;;;;;21.70;13.27;;;;;;;25.61;51.80;101976.13;4997247;28;20356;-74
2022/05/18 07:05:27;;;;;;;26.02;13.07;;;;;;;24.98;52.23;101968.09;5014864;28;20088;-73
2022/05/18 07:07:52;;;;;;;26.10;12.32;;;;;;;26.08;50.25;101972.56;5013675;28;20465;-73
2022/05/18 07:10:18;;;;;;;21.65;12.00;;;;;;;26.54;50.07;101975.28;5013749;28;20083;-74
2022/05/18 07:12:43;;;;;;;22.90;12.13;;;;;;;25.04;53.44;101980.31;5001343;28;20504;-73
2022/05/18 07:15:09;;;;;;;22.02;12.27;;;;;;;23.96;56.54;101983.81;5014916;28;20087;-73
2022/05/18 07:17:34;;;;;;;19.42;12.60;;;;;;;23.93;57.48;101979.03;5013557;28;20061;-73
2022/05/18 07:20:00;;;;;;;22.58;12.43;;;;;;;25.46;54.23;101979.47;5014819;28;20021;-73
2022/05/18 07:22:25;;;;;;;26.38;12.32;;;;;;;25.81;51.57;101959.50;5018334;28;20061;-72
2022/05/18 07:24:51;;;;;;;20.70;12.27;;;;;;;25.98;52.11;101981.31;5001370;28;20080;-75
2022/05/18 07:27:18;;;;;;;21.05;11.75;;;;;;;24.83;54.80;101974.09;5015456;28;20068;-80
2022/05/18 07:29:43;;;;;;;22.85;12.25;;;;;;;24.42;56.33;101983.50;5014646;28;20045;-73
2022/05/18 07:32:09;;;;;;;20.20;11.23;;;;;;;24.18;57.96;101983.78;5013541;28;20389;-74
2022/05/18 07:34:38;;;;;;;17.42;11.43;;;;;;;24.51;57.40;101982.81;5014375;28;20025;-74
2022/05/18 07:37:04;;;;;;;21.02;11.45;;;;;;;24.81;56.64;101996.53;4996622;28;20030;-74
2022/05/18 07:39:30;;;;;;;18.95;10.48;;;;;;;25.05;56.42;101992.47;4996489;28;20096;-74
2022/05/18 07:41:57;;;;;;;16.00;10.10;;;;;;;24.34;57.29;101995.31;5014585;28;20033;-73
2022/05/18 07:44:23;;;;;;;18.95;10.30;;;;;;;24.19;58.15;102001.22;5014597;28;20034;-73
2022/05/18 07:46:48;;;;;;;18.52;10.07;;;;;;;24.63;56.70;102000.34;5015222;28;20108;-74
2022/05/18 07:49:14;;;;;;;18.67;10.27;;;;;;;24.94;56.35;102007.44;5015068;28;20061;-73
2022/05/18 07:51:39;;;;;;;16.55;10.07;;;;;;;24.33;57.60;102001.63;4997491;28;20501;-73
2022/05/18 07:54:04;;;;;;;19.88;11.02;;;;;;;25.26;56.58;102003.19;4996528;28;20026;-74
2022/05/18 07:56:31;;;;;;;14.65;10.27;;;;;;;25.16;55.54;102010.03;4996494;28;20072;-73
2022/05/18 07:58:57;;;;;;;16.15;9.60;;;;;;;25.64;54.42;102002.88;4996732;28;20032;-74
2022/05/18 08:01:22;;;;;;;15.32;8.13;;;;;;;25.91;54.86;102004.56;4996330;28;20034;-74
2022/05/18 08:03:48;;;;;;;13.68;8.10;;;;;;;26.35;52.92;102009.41;4997357;28;20034;-77
2022/05/18 08:06:14;;;;;;;13.40;7.43;;;;;;;25.42;54.81;102003.03;5020960;28;20025;-76
2022/05/18 08:08:40;;;;;;;14.57;7.43;;;;;;;25.81;53.99;102004.53;5003002;28;20060;-76
2022/05/18 08:16:34;;;;;;;14.82;7.25;;;;;;;25.97;54.74;102018.63;5000147;28;20122;-75
2022/05/18 08:19:01;;;;;;;15.75;7.43;;;;;;;26.04;54.10;102024.47;5014270;28;20041;-74
2022/05/18 08:21:27;;;;;;;14.63;7.18;;;;;;;26.85;52.01;102017.69;4996161;28;20041;-73
2022/05/18 08:23:52;;;;;;;14.23;6.57;;;;;;;26.76;52.07;102022.75;4995507;28;20018;-74
2022/05/18 08:26:18;;;;;;;12.38;6.80;;;;;;;25.60;54.94;102025.59;5013381;28;20022;-74
2022/05/18 08:28:43;;;;;;;16.33;6.18;;;;;;;25.98;53.35;102023.66;5013962;28;20083;-74
2022/05/18 08:31:08;;;;;;;11.50;5.95;;;;;;;26.49;52.53;102033.56;4995976;28;20505;-74
2022/05/18 08:33:34;;;;;;;13.43;5.90;;;;;;;26.52;52.83;102030.41;5013614;28;20037;-74
2022/05/18 08:36:05;;;;;;;12.25;6.25;;;;;;;27.00;50.72;102042.34;5013361;28;20029;-73
2022/05/18 08:38:33;;;;;;;18.33;5.88;;;;;;;27.73;49.20;102035.78;4997669;28;20176;-76
2022/05/18 08:41:08;;;;;;;15.55;5.82;;;;;;;27.42;49.14;102040.44;5013819;28;20030;-74
2022/05/18 08:43:38;;;;;;;17.88;5.45;;;;;;;27.16;49.92;102048.47;5013317;28;20481;-74
2022/05/18 08:46:11;;;;;;;16.98;5.90;;;;;;;26.92;49.71;102042.06;4996004;28;20116;-73
2022/05/18 08:48:48;;;;;;;16.38;5.80;;;;;;;26.72;49.91;102046.31;5013613;28;20029;-74
2022/05/18 08:51:38;;;;;;;15.25;5.53;;;;;;;27.01;49.58;102049.22;4995836;28;20021;-73
2022/05/18 08:54:25;;;;;;;16.65;5.97;;;;;;;27.63;46.77;102049.13;5013544;28;20507;-74
2022/05/18 08:56:53;;;;;;;13.60;6.10;;;;;;;27.12;47.75;102039.41;5012003;28;20132;-75
2022/05/18 08:59:39;;;;;;;12.98;6.80;;;;;;;27.11;47.94;102066.22;5013316;28;20018;-74
2022/05/18 09:02:15;;;;;;;14.45;6.82;;;;;;;27.34;47.59;102070.19;5013185;28;20116;-74
2022/05/18 09:04:56;;;;;;;15.00;7.03;;;;;;;27.41;47.62;102057.41;4995511;28;20049;-81
2022/05/18 09:07:27;;;;;;;13.77;7.43;;;;;;;27.43;47.81;102069.34;5013874;28;20030;-73
2022/05/18 09:10:13;;;;;;;13.02;7.20;;;;;;;27.65;47.11;102068.25;5013589;28;20053;-73
2022/05/18 09:12:41;;;;;;;14.50;6.95;;;;;;;27.63;47.11;102070.38;4997239;28;20022;-75
2022/05/18 09:15:09;;;;;;;13.00;7.55;;;;;;;27.20;47.38;102072.59;5016245;28;20022;-74
2022/05/18 09:17:37;;;;;;;17.00;8.23;;;;;;;27.20;47.52;102070.72;5012964;28;20042;-75
2022/05/18 09:20:21;;;;;;;20.23;8.35;;;;;;;27.21;48.13;102071.53;5013252;28;20040;-75
2022/05/18 09:23:11;;;;;;;20.70;7.95;;;;;;;27.19;46.87;102071.81;5013512;28;20021;-73
2022/05/18 09:26:00;;;;;;;16.70;8.80;;;;;;;27.13;47.65;102066.72;5017674;28;20040;-75
2022/05/18 09:28:40;;;;;;;14.07;8.02;;;;;;;26.99;47.45;102072.59;5017610;28;20476;-74
2022/05/18 09:31:30;;;;;;;20.80;8.25;;;;;;;26.98;48.06;102064.88;5012969;28;20552;-74
2022/05/18 09:34:14;;;;;;;17.20;8.65;;;;;;;27.54;46.91;102064.81;4995465;28;20026;-74
2022/05/18 09:37:10;;;;;;;17.13;7.60;;;;;;;27.85;45.50;102067.38;5014582;28;20504;-72
2022/05/18 09:39:44;;;;;;;14.60;7.93;;;;;;;27.85;46.30;102060.22;5016631;28;20037;-74
2022/05/18 09:42:20;;;;;;;13.93;8.40;;;;;;;27.50;46.58;102055.00;5017298;28;20053;-77
2022/05/18 09:45:07;;;;;;;15.50;8.55;;;;;;;27.18;47.41;102062.22;5016574;28;20029;-73
2022/05/18 09:47:45;;;;;;;19.08;8.85;;;;;;;27.33;46.57;102060.63;5016541;28;20036;-73
2022/05/18 09:50:11;;;;;;;16.92;8.48;;;;;;;28.03;45.92;102071.28;5016556;28;20356;-74
2022/05/18 09:52:39;;;;;;;17.40;9.02;;;;;;;27.68;45.95;102065.03;4998732;28;20030;-74
2022/05/18 09:55:08;;;;;;;14.68;8.55;;;;;;;28.78;44.57;102063.13;4998786;28;20022;-74
2022/05/18 09:57:55;;;;;;;17.63;9.23;;;;;;;28.52;44.61;102067.84;4999345;28;20026;-75
2022/05/18 10:00:24;;;;;;;23.90;9.70;;;;;;;28.27;44.83;102068.75;5016679;28;20108;-74
2022/05/18 10:08:28;;;;;;;18.23;9.65;;;;;;;28.48;44.43;102064.13;5016552;28;20041;-74
2022/05/18 10:11:12;;;;;;;14.13;8.57;;;;;;;28.67;43.35;102073.03;5016578;28;20025;-75
2022/05/18 10:13:43;;;;;;;22.38;10.13;;;;;;;27.75;45.21;102070.84;5016392;28;20097;-74
2022/05/18 10:16:19;;;;;;;18.67;10.57;;;;;;;27.29;45.90;102072.84;5014389;28;20021;-74
2022/05/18 10:18:54;;;;;;;17.27;9.20;;;;;;;27.79;46.68;102082.53;5016339;28;20050;-73
2022/05/18 10:21:41;;;;;;;22.52;10.18;;;;;;;28.94;43.22;102071.75;5016789;28;20021;-74
2022/05/18 10:24:22;;;;;;;14.70;8.38;;;;;;;29.19;42.86;102070.75;5000154;28;20033;-74
2022/05/18 10:27:14;;;;;;;23.67;10.05;;;;;;;28.83;42.82;102067.59;5016062;28;20030;-74
2022/05/18 10:29:41;;;;;;;;;;;;;;;29.31;42.33;102070.34;5016205;28;20436;-74
2022/05/18 10:32:10;;;;;;;17.90;9.50;;;;;;;28.96;42.32;102065.06;5018063;28;19909;-74
2022/05/18 10:34:48;;;;;;;26.67;10.40;;;;;;;29.15;42.40;102065.19;5001080;28;20512;-77
2022/05/18 10:37:25;;;;;;;12.73;8.68;;;;;;;29.14;42.75;102078.78;5017358;28;20054;-74
2022/05/18 10:39:51;;;;;;;18.23;9.75;;;;;;;28.83;43.37;102071.06;5016944;28;20423;-75
2022/05/18 10:42:43;;;;;;;22.63;9.70;;;;;;;28.73;43.12;102068.47;5017476;28;20072;-80
2022/05/18 10:45:30;;;;;;;15.38;9.15;;;;;;;28.93;44.19;102062.97;5005917;28;20466;-79
2022/05/18 10:48:12;;;;;;;18.30;9.63;;;;;;;28.99;42.36;102058.41;5026394;28;20078;-77
2022/05/18 10:50:39;;;;;;;19.83;8.63;;;;;;;29.62;41.57;102055.66;5007662;28;20021;-74
2022/05/18 10:53:13;;;;;;;15.93;9.50;;;;;;;29.11;42.29;102060.72;5027833;28;20052;-79
2022/05/18 10:56:03;;;;;;;22.92;9.38;;;;;;;28.36;43.97;102043.19;5029791;28;20022;-81
2022/05/18 10:59:08;;;;;;;14.95;8.52;;;;;;;27.71;45.02;102058.38;5028376;28;20068;-79
2022/05/18 11:01:42;;;;;;;19.48;9.43;;;;;;;27.81;45.37;102064.47;5012145;28;20044;-77
2022/05/18 11:04:15;;;;;;;20.73;8.32;;;;;;;27.46;45.42;102065.38;5028796;28;20037;-77
2022/05/18 11:06:41;;;;;;;25.42;8.80;;;;;;;27.17;46.76;102062.50;5027047;28;20022;-79
2022/05/18 11:09:28;;;;;;;20.30;8.98;;;;;;;26.72;47.17;102062.22;5009817;28;20417;-76
2022/05/18 11:12:16;;;;;;;21.13;8.27;;;;;;;27.04;47.29;102073.63;5008816;28;20030;-75
2022/05/18 11:15:23;;;;;;;16.17;8.27;;;;;;;26.86;47.28;102067.00;5000866;28;20061;-77
2022/05/18 11:18:07;;;;;;;15.35;8.05;;;;;;;27.06;47.39;102066.22;5017355;28;20074;-75
2022/05/18 11:20:47;;;;;;;22.17;8.20;;;;;;;27.52;46.00;102066.16;5017764;28;20037;-77
2022/05/18 11:23:50;;;;;;;19.52;8.18;;;;;;;27.49;45.79;102059.53;5019615;28;20021;-75
2022/05/18 11:26:25;;;;;;;21.80;8.68;;;;;;;27.07;46.38;102071.22;4976342;28;20035;-74
2022/05/18 11:29:04;;;;;;;16.90;7.85;;;;;;;27.28;46.18;102068.59;5011629;28;20041;-73
2022/05/18 11:31:51;;;;;;;22.27;8.65;;;;;;;27.21;46.47;102066.22;4998495;28;20392;-74
2022/05/18 11:34:38;;;;;;;25.50;8.25;;;;;;;26.89;47.42;102066.47;4998538;28;20045;-74
2022/05/18 11:37:18;;;;;;;19.33;8.25;;;;;;;26.76;47.33;102068.63;4997893;28;20366;-74
2022/05/18 11:40:01;;;;;;;13.63;7.00;;;;;;;26.47;47.51;102072.78;5014734;28;20088;-75
2022/05/18 11:42:51;;;;;;;16.45;7.57;;;;;;;26.16;48.10;102067.41;5015409;28;20488;-74